Time;durP1;ratioP1;P1;durP2;ratioP2;P2;SDS_P1;SDS_P2;PMS_P1;PMS_P2;Temp;Humidity;BMP_temperature;BMP_pressure;BME280_temperature;BME280_humidity;BME280_pressure;Samples;Min_cycle;Max_cycle;Signal;HPM_P1;HPM_P2
2021/10/23 00:02:04;;;;;;;2.58;1.25;;;;;12.10;102255.00;;;;5028093;28;20216;-78
2021/10/23 00:04:31;;;;;;;2.25;1.40;;;;;12.10;102251.00;;;;5028358;28;20220;-78
2021/10/23 00:06:58;;;;;;;2.90;1.40;;;;;12.10;102250.00;;;;5027892;28;20224;-78
2021/10/23 00:09:25;;;;;;;1.80;1.35;;;;;12.10;102252.00;;;;5038183;28;20195;-78
2021/10/23 00:11:54;;;;;;;2.28;1.50;;;;;12.10;102255.00;;;;5039810;28;20206;-78
2021/10/23 00:14:21;;;;;;;1.33;0.90;;;;;12.10;102257.00;;;;5036346;28;20224;-78
2021/10/23 00:16:49;;;;;;;1.73;1.00;;;;;12.10;102257.00;;;;5040463;28;20261;-78
2021/10/23 00:19:16;;;;;;;2.28;1.50;;;;;12.20;102260.00;;;;5031956;28;20196;-78
2021/10/23 00:21:43;;;;;;;2.45;1.40;;;;;12.20;102247.00;;;;5048406;28;20218;-78
2021/10/23 00:24:10;;;;;;;2.38;1.30;;;;;12.20;102256.00;;;;5035501;28;20223;-78
2021/10/23 00:26:38;;;;;;;1.63;1.10;;;;;12.20;102261.00;;;;5032063;28;20204;-77
2021/10/23 00:29:06;;;;;;;3.78;1.33;;;;;12.20;102260.00;;;;5050415;28;20207;-77
2021/10/23 00:31:33;;;;;;;1.58;1.10;;;;;12.20;102258.00;;;;5031885;28;20230;-78
2021/10/23 00:34:01;;;;;;;2.70;1.00;;;;;12.20;102262.00;;;;5048524;28;20662;-78
2021/10/23 00:36:28;;;;;;;1.85;1.30;;;;;12.30;102256.00;;;;5052551;28;20207;-77
2021/10/23 00:38:55;;;;;;;2.75;1.60;;;;;12.30;102260.00;;;;5051900;28;20721;-77
2021/10/23 00:41:23;;;;;;;2.13;1.20;;;;;12.30;102259.00;;;;5051664;28;20228;-77
2021/10/23 00:43:50;;;;;;;3.03;1.42;;;;;12.30;102260.00;;;;5052540;28;20211;-78
2021/10/23 00:46:19;;;;;;;3.08;1.58;;;;;12.30;102256.00;;;;5051424;28;20192;-78
2021/10/23 00:48:46;;;;;;;1.67;1.20;;;;;12.30;102257.00;;;;5049112;28;20200;-77
2021/10/23 00:51:16;;;;;;;2.08;0.98;;;;;12.30;102262.00;;;;5048340;28;20203;-78
2021/10/23 00:53:45;;;;;;;1.80;1.40;;;;;12.30;102260.00;;;;5047237;28;20258;-78
2021/10/23 00:56:13;;;;;;;2.08;1.25;;;;;12.30;102257.00;;;;5051697;28;20210;-77
2021/10/23 00:58:40;;;;;;;2.97;1.58;;;;;12.30;102256.00;;;;5051995;28;20196;-78
2021/10/23 01:01:07;;;;;;;2.13;1.23;;;;;12.30;102254.00;;;;5034934;28;20231;-77
2021/10/23 01:03:38;;;;;;;1.85;1.25;;;;;12.30;102263.00;;;;5033787;28;20203;-78
2021/10/23 01:06:07;;;;;;;4.35;1.95;;;;;12.30;102265.00;;;;5045239;28;20196;-77
2021/10/23 01:08:34;;;;;;;2.95;1.42;;;;;12.30;102267.00;;;;5040400;28;20191;-77
2021/10/23 01:11:02;;;;;;;2.90;1.42;;;;;12.30;102263.00;;;;5041467;28;20208;-77
2021/10/23 01:13:29;;;;;;;2.65;1.52;;;;;12.20;102265.00;;;;5031672;28;20679;-76
2021/10/23 01:15:56;;;;;;;3.13;1.30;;;;;12.20;102256.00;;;;5031442;28;20212;-78
2021/10/23 01:18:24;;;;;;;2.28;1.27;;;;;12.20;102254.00;;;;5032208;28;20204;-77
2021/10/23 01:20:52;;;;;;;1.73;1.38;;;;;12.20;102250.00;;;;5040639;28;20306;-78
2021/10/23 01:23:20;;;;;;;4.65;1.15;;;;;12.20;102247.00;;;;5032491;28;20208;-78
2021/10/23 01:25:47;;;;;;;1.65;1.17;;;;;12.20;102236.00;;;;5031441;28;20224;-77
2021/10/23 01:28:14;;;;;;;2.63;1.23;;;;;12.20;102243.00;;;;5031057;28;20196;-78
2021/10/23 01:30:42;;;;;;;1.67;1.17;;;;;12.10;102234.00;;;;5042476;28;20207;-77
2021/10/23 01:33:09;;;;;;;2.10;1.40;;;;;12.10;102249.00;;;;5051413;28;20208;-77
2021/10/23 01:35:39;;;;;;;2.58;1.27;;;;;12.10;102254.00;;;;5045869;28;20452;-78
2021/10/23 01:38:08;;;;;;;1.88;1.20;;;;;12.00;102242.00;;;;5031144;28;20559;-77
2021/10/23 01:40:35;;;;;;;3.28;1.65;;;;;12.10;102239.00;;;;5031628;28;20236;-77
2021/10/23 01:43:04;;;;;;;3.22;1.42;;;;;12.00;102232.00;;;;5030988;28;20227;-78
2021/10/23 01:45:32;;;;;;;1.58;1.20;;;;;12.00;102232.00;;;;5031061;28;20596;-78
2021/10/23 01:48:00;;;;;;;1.60;0.90;;;;;12.00;102240.00;;;;5030746;28;20203;-77
2021/10/23 01:50:29;;;;;;;2.70;1.27;;;;;12.00;102234.00;;;;5040856;28;20204;-78
2021/10/23 01:52:57;;;;;;;3.42;1.25;;;;;12.00;102240.00;;;;5050806;28;20289;-78
2021/10/23 01:55:26;;;;;;;2.97;1.42;;;;;12.00;102244.00;;;;5039378;28;20673;-77
2021/10/23 01:57:57;;;;;;;2.33;1.52;;;;;11.90;102248.00;;;;5042319;28;20274;-77
2021/10/23 02:00:24;;;;;;;2.72;1.33;;;;;11.90;102241.00;;;;5030550;28;20819;-77
2021/10/23 02:02:52;;;;;;;1.50;1.25;;;;;11.90;102248.00;;;;5031651;28;20231;-77
2021/10/23 02:05:19;;;;;;;3.50;1.35;;;;;11.90;102255.00;;;;5046710;28;20231;-77
2021/10/23 02:07:46;;;;;;;1.70;1.30;;;;;11.90;102261.00;;;;5050351;28;20199;-78
2021/10/23 02:10:14;;;;;;;2.28;1.33;;;;;11.80;102260.00;;;;5049690;28;20219;-78
2021/10/23 02:12:42;;;;;;;2.15;1.58;;;;;11.80;102271.00;;;;5037518;28;20290;-77
2021/10/23 02:15:10;;;;;;;2.88;1.60;;;;;11.80;102272.00;;;;5054937;28;20195;-77
2021/10/23 02:17:38;;;;;;;2.33;1.40;;;;;11.80;102273.00;;;;5050612;28;20212;-77
2021/10/23 02:20:06;;;;;;;1.52;0.93;;;;;11.80;102271.00;;;;5039265;28;20694;-77
2021/10/23 02:22:34;;;;;;;2.90;1.00;;;;;11.80;102275.00;;;;5030416;28;20196;-77
2021/10/23 02:25:01;;;;;;;1.25;0.77;;;;;11.80;102275.00;;;;5030639;28;20323;-77
2021/10/23 02:27:28;;;;;;;2.00;1.02;;;;;11.80;102267.00;;;;5029994;28;20204;-77
2021/10/23 02:29:57;;;;;;;2.03;0.90;;;;;11.70;102272.00;;;;5044486;28;20199;-78
2021/10/23 02:32:24;;;;;;;1.50;1.08;;;;;11.70;102268.00;;;;5039105;28;20219;-77
2021/10/23 02:34:51;;;;;;;2.03;1.02;;;;;11.70;102268.00;;;;5030315;28;20196;-77
2021/10/23 02:37:18;;;;;;;1.83;1.05;;;;;11.70;102258.00;;;;5030627;28;20200;-77
2021/10/23 02:39:46;;;;;;;1.58;0.65;;;;;11.70;102261.00;;;;5030935;28;20196;-78
2021/10/23 02:42:13;;;;;;;2.10;1.17;;;;;11.70;102255.00;;;;5029034;28;20223;-77
2021/10/23 02:44:40;;;;;;;2.42;0.90;;;;;11.60;102263.00;;;;5030515;28;20219;-77
2021/10/23 02:47:09;;;;;;;1.83;1.25;;;;;11.60;102268.00;;;;5029660;28;20203;-77
2021/10/23 02:49:37;;;;;;;1.60;0.82;;;;;11.60;102271.00;;;;5041377;28;20200;-77
2021/10/23 02:52:05;;;;;;;1.83;1.23;;;;;11.60;102266.00;;;;5048485;28;20199;-77
2021/10/23 02:54:32;;;;;;;1.02;0.88;;;;;11.50;102267.00;;;;5049332;28;20215;-77
2021/10/23 02:57:00;;;;;;;1.55;0.85;;;;;11.50;102265.00;;;;5047554;28;20203;-77
2021/10/23 02:59:27;;;;;;;1.50;1.08;;;;;11.50;102264.00;;;;5049463;28;20207;-77
2021/10/23 03:01:54;;;;;;;4.95;1.42;;;;;11.50;102272.00;;;;5047443;28;20287;-76
2021/10/23 03:04:23;;;;;;;3.50;1.02;;;;;11.50;102276.00;;;;5037375;28;20203;-77
2021/10/23 03:06:50;;;;;;;1.27;0.88;;;;;11.50;102286.00;;;;5033935;28;20708;-77
2021/10/23 03:09:17;;;;;;;1.30;0.88;;;;;11.40;102279.00;;;;5029658;28;20215;-77
2021/10/23 03:11:44;;;;;;;3.22;1.60;;;;;11.40;102279.00;;;;5038598;28;20196;-77
2021/10/23 03:14:12;;;;;;;1.30;0.93;;;;;11.40;102277.00;;;;5034115;28;20204;-77
2021/10/23 03:16:39;;;;;;;1.75;1.08;;;;;11.40;102283.00;;;;5029293;28;20736;-77
2021/10/23 03:19:06;;;;;;;1.60;0.77;;;;;11.40;102283.00;;;;5040413;28;20195;-77
2021/10/23 03:21:35;;;;;;;2.22;0.90;;;;;11.30;102291.00;;;;5048622;28;20208;-77
2021/10/23 03:24:02;;;;;;;2.17;1.15;;;;;11.40;102300.00;;;;5058667;28;20195;-77
2021/10/23 03:26:29;;;;;;;2.67;1.08;;;;;11.30;102305.00;;;;5047997;28;20227;-77
2021/10/23 03:28:57;;;;;;;1.92;1.08;;;;;11.30;102308.00;;;;5048573;28;20200;-77
2021/10/23 03:31:25;;;;;;;1.40;0.85;;;;;11.30;102313.00;;;;5036821;28;20219;-77
2021/10/23 03:33:52;;;;;;;1.52;0.73;;;;;11.30;102326.00;;;;5028774;28;20207;-76
2021/10/23 03:36:20;;;;;;;1.17;0.70;;;;;11.30;102318.00;;;;5028730;28;20191;-77
2021/10/23 03:38:48;;;;;;;1.58;0.95;;;;;11.20;102319.00;;;;5028962;28;20212;-77
2021/10/23 03:41:15;;;;;;;1.80;1.00;;;;;11.20;102320.00;;;;5031177;28;20596;-77
2021/10/23 03:43:43;;;;;;;4.22;1.05;;;;;11.20;102315.00;;;;5029154;28;20208;-77
2021/10/23 03:46:10;;;;;;;2.35;0.75;;;;;11.20;102321.00;;;;5028522;28;20223;-78
2021/10/23 03:48:37;;;;;;;1.63;0.70;;;;;11.20;102317.00;;;;5029023;28;20196;-77
2021/10/23 03:51:04;;;;;;;0.95;0.68;;;;;11.20;102316.00;;;;5030976;28;20211;-77
2021/10/23 03:53:32;;;;;;;3.00;1.02;;;;;11.10;102314.00;;;;5031566;28;20204;-77
2021/10/23 03:56:01;;;;;;;2.05;1.30;;;;;11.10;102314.00;;;;5030189;28;20295;-77
2021/10/23 03:58:28;;;;;;;2.20;0.88;;;;;11.10;102318.00;;;;5048672;28;20215;-77
2021/10/23 04:00:55;;;;;;;1.45;0.73;;;;;11.10;102313.00;;;;5048006;28;20767;-77
2021/10/23 04:03:23;;;;;;;1.42;0.80;;;;;11.10;102315.00;;;;5048353;28;20219;-77
2021/10/23 04:05:50;;;;;;;1.55;0.95;;;;;11.10;102319.00;;;;5029327;28;20235;-77
2021/10/23 04:08:17;;;;;;;3.42;1.55;;;;;11.10;102323.00;;;;5028901;28;20201;-77
2021/10/23 04:10:44;;;;;;;1.83;0.93;;;;;11.10;102324.00;;;;5028444;28;20192;-78
2021/10/23 04:13:13;;;;;;;1.83;0.98;;;;;11.00;102326.00;;;;5032563;28;20198;-77
2021/10/23 04:15:40;;;;;;;5.53;1.00;;;;;11.00;102310.00;;;;5048075;28;20198;-78
2021/10/23 04:18:07;;;;;;;2.33;0.75;;;;;11.00;102317.00;;;;5041174;28;20203;-78
2021/10/23 04:20:35;;;;;;;1.60;0.90;;;;;11.00;102313.00;;;;5029059;28;20204;-77
2021/10/23 04:23:02;;;;;;;1.98;0.90;;;;;11.00;102317.00;;;;5027805;28;20196;-77
2021/10/23 04:25:29;;;;;;;2.58;1.30;;;;;11.00;102312.00;;;;5028395;28;20691;-78
2021/10/23 04:27:56;;;;;;;2.28;0.77;;;;;11.00;102320.00;;;;5028190;28;20196;-77
2021/10/23 04:30:25;;;;;;;5.10;1.40;;;;;10.90;102319.00;;;;5029252;28;20204;-78
2021/10/23 04:32:52;;;;;;;2.35;0.93;;;;;10.90;102325.00;;;;5055013;28;20568;-77
2021/10/23 04:35:20;;;;;;;0.93;0.90;;;;;10.90;102318.00;;;;5068419;28;20207;-78
2021/10/23 04:37:47;;;;;;;4.50;1.00;;;;;10.90;102318.00;;;;5058588;28;20204;-78
2021/10/23 04:40:14;;;;;;;2.65;0.90;;;;;10.90;102338.00;;;;5038607;28;20223;-78
2021/10/23 04:42:41;;;;;;;1.80;1.00;;;;;10.90;102334.00;;;;5046978;28;20695;-78
2021/10/23 04:45:10;;;;;;;3.53;0.88;;;;;10.90;102340.00;;;;5047512;28;20242;-78
2021/10/23 04:47:38;;;;;;;3.47;1.00;;;;;10.90;102338.00;;;;5045577;28;20208;-77
2021/10/23 04:50:06;;;;;;;1.30;0.82;;;;;10.80;102337.00;;;;5044414;28;20203;-77
2021/10/23 04:52:34;;;;;;;2.03;0.95;;;;;10.90;102330.00;;;;5041681;28;20671;-78
2021/10/23 04:55:02;;;;;;;1.33;0.60;;;;;10.80;102328.00;;;;5028410;28;20209;-77
2021/10/23 04:57:29;;;;;;;1.52;0.82;;;;;10.80;102332.00;;;;5042308;28;20215;-77
2021/10/23 04:59:56;;;;;;;1.48;0.85;;;;;10.80;102332.00;;;;5030490;28;20208;-77
2021/10/23 05:02:23;;;;;;;2.00;0.70;;;;;10.80;102332.00;;;;5056392;28;20203;-77
2021/10/23 05:04:52;;;;;;;3.88;1.45;;;;;10.80;102330.00;;;;5047040;28;20200;-78
2021/10/23 05:07:19;;;;;;;2.22;1.20;;;;;10.80;102340.00;;;;5036753;28;20223;-78
2021/10/23 05:09:46;;;;;;;1.52;1.00;;;;;10.80;102339.00;;;;5051980;28;20203;-78
2021/10/23 05:12:14;;;;;;;2.22;0.95;;;;;10.80;102343.00;;;;5051877;28;20257;-78
2021/10/23 05:14:41;;;;;;;1.60;0.82;;;;;10.80;102347.00;;;;5046510;28;20196;-78
2021/10/23 05:17:08;;;;;;;0.75;0.60;;;;;10.80;102346.00;;;;5051461;28;20208;-77
2021/10/23 05:19:35;;;;;;;2.33;0.98;;;;;10.80;102344.00;;;;5051465;28;20227;-77
2021/10/23 05:22:04;;;;;;;2.40;1.17;;;;;10.80;102342.00;;;;5041807;28;20208;-77
2021/10/23 05:24:32;;;;;;;1.98;1.10;;;;;10.80;102341.00;;;;5031843;28;20207;-78
2021/10/23 05:26:59;;;;;;;1.63;0.98;;;;;10.80;102356.00;;;;5031571;28;20266;-78
2021/10/23 05:29:26;;;;;;;2.00;0.93;;;;;10.80;102357.00;;;;5031162;28;20208;-78
2021/10/23 05:31:53;;;;;;;1.52;0.93;;;;;10.80;102354.00;;;;5031432;28;20658;-77
2021/10/23 05:34:21;;;;;;;1.70;1.13;;;;;10.70;102350.00;;;;5030992;28;20201;-77
2021/10/23 05:36:49;;;;;;;1.33;1.00;;;;;10.80;102353.00;;;;5038862;28;20541;-78
2021/10/23 05:39:17;;;;;;;1.73;0.88;;;;;10.70;102348.00;;;;5059612;28;20203;-77
2021/10/23 05:41:45;;;;;;;1.63;0.98;;;;;10.70;102351.00;;;;5039628;28;20223;-77
2021/10/23 05:44:12;;;;;;;1.33;0.80;;;;;10.70;102348.00;;;;5041162;28;20206;-77
2021/10/23 05:46:40;;;;;;;1.88;1.23;;;;;10.80;102352.00;;;;5038887;28;20612;-77
2021/10/23 05:49:07;;;;;;;2.80;1.15;;;;;10.70;102354.00;;;;5043776;28;20231;-77
2021/10/23 05:51:34;;;;;;;2.50;0.90;;;;;10.70;102358.00;;;;5036439;28;20677;-77
2021/10/23 05:54:02;;;;;;;2.90;1.13;;;;;10.70;102363.00;;;;5036531;28;20199;-77
2021/10/23 05:56:30;;;;;;;1.42;0.90;;;;;10.70;102375.00;;;;5036513;28;20204;-77
2021/10/23 05:59:10;;;;;;;1.70;1.10;;;;;10.70;102370.00;;;;5037154;28;20646;-77
2021/10/23 06:01:37;;;;;;;1.38;0.90;;;;;10.70;102383.00;;;;5041118;28;20192;-78
2021/10/23 06:04:05;;;;;;;1.58;1.10;;;;;10.70;102385.00;;;;5037399;28;20195;-78
2021/10/23 06:06:32;;;;;;;3.15;1.75;;;;;10.70;102387.00;;;;5044024;28;20514;-77
2021/10/23 06:09:00;;;;;;;1.63;1.13;;;;;10.70;102389.00;;;;5035835;28;20200;-77
2021/10/23 06:11:30;;;;;;;1.80;1.02;;;;;10.70;102399.00;;;;5042110;28;20201;-78
2021/10/23 06:13:58;;;;;;;3.15;1.20;;;;;10.70;102404.00;;;;5042595;28;20307;-79
2021/10/23 06:16:26;;;;;;;1.83;1.13;;;;;10.70;102402.00;;;;5030235;28;20202;-79
2021/10/23 06:18:53;;;;;;;1.70;0.90;;;;;10.70;102412.00;;;;5030918;28;20208;-79
2021/10/23 06:21:21;;;;;;;4.70;1.40;;;;;10.70;102415.00;;;;5042015;28;20196;-79
2021/10/23 06:23:48;;;;;;;2.13;1.38;;;;;10.80;102408.00;;;;5030698;28;20211;-78
2021/10/23 06:26:15;;;;;;;1.73;1.13;;;;;10.80;102409.00;;;;5029890;28;20223;-79
2021/10/23 06:28:44;;;;;;;5.57;1.30;;;;;10.80;102418.00;;;;5029891;28;20211;-78
2021/10/23 06:31:12;;;;;;;4.43;1.48;;;;;10.80;102430.00;;;;5035316;28;20199;-79
2021/10/23 06:33:39;;;;;;;2.17;1.42;;;;;10.80;102421.00;;;;5046879;28;21047;-78
2021/10/23 06:36:06;;;;;;;2.50;1.13;;;;;10.90;102428.00;;;;5032879;28;20199;-77
2021/10/23 06:38:33;;;;;;;3.17;1.30;;;;;10.90;102427.00;;;;5049567;28;20206;-77
2021/10/23 06:41:01;;;;;;;1.95;1.30;;;;;10.90;102429.00;;;;5045736;28;20232;-77
2021/10/23 06:43:28;;;;;;;1.27;1.08;;;;;11.00;102439.00;;;;5051351;28;20198;-77
2021/10/23 06:45:57;;;;;;;2.38;1.73;;;;;11.00;102445.00;;;;5054090;28;20212;-77
2021/10/23 06:48:24;;;;;;;2.33;1.50;;;;;11.00;102449.00;;;;5044865;28;20200;-77
2021/10/23 06:50:51;;;;;;;2.55;1.70;;;;;11.10;102449.00;;;;5038407;28;20605;-77
2021/10/23 06:53:18;;;;;;;3.58;1.83;;;;;11.10;102452.00;;;;5031570;28;20554;-78
2021/10/23 06:55:45;;;;;;;2.85;1.80;;;;;11.20;102455.00;;;;5045976;28;20206;-77
2021/10/23 06:58:13;;;;;;;1.95;1.58;;;;;11.20;102458.00;;;;5035797;28;20222;-76
2021/10/23 07:00:40;;;;;;;4.68;2.00;;;;;11.30;102450.00;;;;5049787;28;20208;-77
2021/10/23 07:03:09;;;;;;;3.17;1.90;;;;;11.30;102455.00;;;;5046585;28;20518;-78
2021/10/23 07:05:36;;;;;;;2.70;2.08;;;;;11.40;102453.00;;;;5044221;28;20219;-78
2021/10/23 07:08:04;;;;;;;3.72;1.98;;;;;11.50;102456.00;;;;5029570;28;20674;-78
2021/10/23 07:10:31;;;;;;;2.83;1.90;;;;;11.50;102462.00;;;;5037758;28;20561;-77
2021/10/23 07:12:59;;;;;;;3.13;2.00;;;;;11.60;102466.00;;;;5034951;28;20200;-77
2021/10/23 07:15:26;;;;;;;3.72;2.35;;;;;11.60;102470.00;;;;5045867;28;20319;-78
2021/10/23 07:17:53;;;;;;;2.78;2.38;;;;;11.70;102472.00;;;;5036913;28;20203;-78
2021/10/23 07:20:24;;;;;;;4.00;2.30;;;;;11.70;102475.00;;;;5035729;28;20208;-78
2021/10/23 07:22:53;;;;;;;3.95;2.17;;;;;11.80;102478.00;;;;5043080;28;20636;-78
2021/10/23 07:25:20;;;;;;;3.92;2.15;;;;;11.90;102480.00;;;;5033201;28;20589;-78
2021/10/23 07:27:47;;;;;;;5.45;2.75;;;;;11.90;102477.00;;;;5038165;28;20224;-77
2021/10/23 07:30:15;;;;;;;2.75;2.08;;;;;12.00;102479.00;;;;5036900;28;20218;-79
2021/10/23 07:32:42;;;;;;;3.25;2.63;;;;;12.10;102491.00;;;;5033696;28;20646;-79
2021/10/23 07:35:11;;;;;;;3.83;2.85;;;;;12.10;102499.00;;;;5036387;28;21022;-81
2021/10/23 07:37:40;;;;;;;3.53;2.63;;;;;12.20;102498.00;;;;5042265;28;20211;-80
2021/10/23 07:40:09;;;;;;;3.15;2.47;;;;;12.30;102508.00;;;;5040661;28;20708;-80
2021/10/23 07:42:37;;;;;;;4.30;3.13;;;;;12.30;102512.00;;;;5047470;28;20195;-79
2021/10/23 07:45:06;;;;;;;4.15;2.75;;;;;12.40;102516.00;;;;5043264;28;20200;-79
2021/10/23 07:47:34;;;;;;;4.75;3.00;;;;;12.50;102517.00;;;;5036562;28;20220;-79
2021/10/23 07:50:01;;;;;;;3.90;1.88;;;;;12.50;102512.00;;;;5034772;28;20195;-79
2021/10/23 07:52:28;;;;;;;2.88;2.45;;;;;12.60;102511.00;;;;5060119;28;20195;-79
2021/10/23 07:54:57;;;;;;;3.63;2.20;;;;;12.60;102513.00;;;;5040633;28;20701;-79
2021/10/23 07:57:24;;;;;;;3.30;2.70;;;;;12.70;102509.00;;;;5028806;28;20204;-79
2021/10/23 07:59:51;;;;;;;3.42;2.65;;;;;12.80;102522.00;;;;5029043;28;20227;-79
2021/10/23 08:02:19;;;;;;;3.17;2.30;;;;;12.90;102518.00;;;;5027882;28;20227;-79
2021/10/23 08:04:46;;;;;;;2.67;2.17;;;;;12.90;102521.00;;;;5027952;28;20673;-79
2021/10/23 08:07:13;;;;;;;3.60;2.58;;;;;13.00;102523.00;;;;5027355;28;20228;-79
2021/10/23 08:09:40;;;;;;;2.80;2.22;;;;;13.10;102533.00;;;;5045233;28;20207;-79
2021/10/23 08:12:09;;;;;;;3.10;2.67;;;;;13.10;102538.00;;;;5046892;28;20219;-79
2021/10/23 08:14:37;;;;;;;3.50;2.95;;;;;13.20;102540.00;;;;5034878;28;20197;-79
2021/10/23 08:17:05;;;;;;;3.15;2.80;;;;;13.20;102544.00;;;;5035076;28;20188;-79
2021/10/23 08:19:33;;;;;;;3.95;3.03;;;;;13.30;102544.00;;;;5047573;28;20206;-79
2021/10/23 08:22:00;;;;;;;2.60;2.38;;;;;13.30;102543.00;;;;5047299;28;20200;-79
2021/10/23 08:24:27;;;;;;;2.70;2.42;;;;;13.40;102551.00;;;;5047746;28;20222;-79
2021/10/23 08:26:54;;;;;;;3.15;2.67;;;;;13.50;102550.00;;;;5047356;28;20224;-79
2021/10/23 08:29:23;;;;;;;4.07;2.70;;;;;13.50;102548.00;;;;5036551;28;20215;-79
2021/10/23 08:31:50;;;;;;;3.30;2.70;;;;;13.60;102555.00;;;;5027557;28;20214;-79
2021/10/23 08:34:18;;;;;;;2.45;2.25;;;;;13.70;102563.00;;;;5027756;28;20207;-79
2021/10/23 08:36:45;;;;;;;3.65;2.92;;;;;13.70;102563.00;;;;5028502;28;20208;-79
2021/10/23 08:39:13;;;;;;;3.40;2.85;;;;;13.80;102563.00;;;;5030827;28;20208;-79
2021/10/23 08:41:43;;;;;;;2.72;2.47;;;;;13.80;102556.00;;;;5031689;28;20231;-79
2021/10/23 08:44:13;;;;;;;3.05;2.75;;;;;13.90;102552.00;;;;5030994;28;20208;-79
2021/10/23 08:46:44;;;;;;;5.88;3.38;;;;;13.90;102557.00;;;;5032994;28;20239;-79
2021/10/23 08:49:12;;;;;;;3.53;2.95;;;;;14.00;102546.00;;;;5031077;28;20200;-79
2021/10/23 08:51:40;;;;;;;3.33;2.70;;;;;14.00;102548.00;;;;5031947;28;20254;-79
2021/10/23 08:54:07;;;;;;;4.40;3.35;;;;;14.10;102550.00;;;;5031860;28;20204;-79
2021/10/23 08:56:34;;;;;;;4.25;3.45;;;;;14.10;102569.00;;;;5032060;28;20973;-79
2021/10/23 08:59:02;;;;;;;3.83;3.15;;;;;14.20;102567.00;;;;5032021;28;20211;-79
2021/10/23 09:01:29;;;;;;;4.40;3.38;;;;;14.20;102555.00;;;;5037804;28;20203;-79
2021/10/23 09:03:57;;;;;;;4.00;3.17;;;;;14.30;102568.00;;;;5056826;28;20203;-79
2021/10/23 09:06:33;;;;;;;5.03;4.03;;;;;14.30;102566.00;;;;5071782;28;20199;-79
2021/10/23 09:09:06;;;;;;;4.88;3.35;;;;;14.30;102575.00;;;;5051401;28;20199;-79
2021/10/23 09:11:35;;;;;;;5.35;3.70;;;;;14.40;102568.00;;;;5051713;28;20200;-79
2021/10/23 09:14:21;;;;;;;4.30;3.47;;;;;14.40;102566.00;;;;5050835;28;20218;-79
2021/10/23 09:16:58;;;;;;;4.93;3.45;;;;;14.60;102562.00;;;;5050588;28;20204;-79
2021/10/23 09:19:37;;;;;;;5.22;4.20;;;;;14.60;102568.00;;;;5047315;28;20207;-79
2021/10/23 09:22:06;;;;;;;4.78;4.25;;;;;14.70;102578.00;;;;5030740;28;20200;-79
2021/10/23 09:24:34;;;;;;;5.22;3.92;;;;;14.80;102577.00;;;;5030363;28;20203;-79
2021/10/23 09:27:12;;;;;;;4.82;3.90;;;;;14.90;102588.00;;;;5030589;28;20219;-79
2021/10/23 09:29:39;;;;;;;5.40;4.18;;;;;14.90;102587.00;;;;5030854;28;20204;-79
2021/10/23 09:32:10;;;;;;;5.15;3.92;;;;;15.00;102578.00;;;;5030786;28;20209;-80
2021/10/23 09:34:39;;;;;;;5.07;4.10;;;;;15.10;102584.00;;;;5030949;28;20286;-80
2021/10/23 09:37:09;;;;;;;5.20;4.20;;;;;15.10;102588.00;;;;5035167;28;20526;-80
2021/10/23 09:39:37;;;;;;;4.75;3.97;;;;;15.20;102580.00;;;;5030900;28;20200;-79
2021/10/23 09:42:08;;;;;;;4.75;4.00;;;;;15.30;102581.00;;;;5030378;28;20280;-80
2021/10/23 09:44:36;;;;;;;6.47;4.78;;;;;15.40;102585.00;;;;5030098;28;20200;-80
2021/10/23 09:47:03;;;;;;;5.88;4.57;;;;;15.50;102587.00;;;;5030150;28;20228;-80
2021/10/23 09:49:30;;;;;;;6.82;5.20;;;;;15.50;102583.00;;;;5030204;28;20204;-80
2021/10/23 09:52:06;;;;;;;7.57;4.60;;;;;15.60;102584.00;;;;5029931;28;20204;-80
2021/10/23 09:54:34;;;;;;;6.22;4.68;;;;;15.70;102584.00;;;;5031383;28;20211;-80
2021/10/23 09:57:10;;;;;;;5.57;4.50;;;;;15.70;102584.00;;;;5031295;28;20207;-80
2021/10/23 09:59:39;;;;;;;6.05;4.65;;;;;15.90;102589.00;;;;5047664;28;20230;-79
2021/10/23 10:02:07;;;;;;;6.88;5.00;;;;;16.00;102580.00;;;;5050355;28;20250;-80
2021/10/23 10:04:36;;;;;;;5.50;4.38;;;;;16.10;102585.00;;;;5050801;28;20211;-80
2021/10/23 10:07:05;;;;;;;9.38;5.85;;;;;16.10;102588.00;;;;5050400;28;20341;-80
2021/10/23 10:09:32;;;;;;;6.50;5.05;;;;;16.20;102586.00;;;;5056382;28;20199;-80
2021/10/23 10:12:00;;;;;;;5.72;4.63;;;;;16.30;102586.00;;;;5066061;28;20923;-79
2021/10/23 10:14:31;;;;;;;6.50;4.55;;;;;16.40;102592.00;;;;5058992;28;20633;-79
2021/10/23 10:17:00;;;;;;;6.22;4.75;;;;;16.50;102595.00;;;;5049480;28;20290;-80
2021/10/23 10:19:27;;;;;;;6.80;5.40;;;;;16.50;102596.00;;;;5050262;28;20203;-80
2021/10/23 10:21:56;;;;;;;8.02;5.10;;;;;16.60;102593.00;;;;5050363;28;20565;-80
2021/10/23 10:24:28;;;;;;;4.68;4.15;;;;;16.70;102595.00;;;;5050383;28;20207;-80
2021/10/23 10:27:01;;;;;;;5.13;4.28;;;;;16.70;102602.00;;;;5049938;28;20203;-79
2021/10/23 10:29:43;;;;;;;6.38;4.70;;;;;16.70;102606.00;;;;5029690;28;20200;-80
2021/10/23 10:32:16;;;;;;;6.13;5.00;;;;;16.90;102614.00;;;;5029134;28;20212;-80
2021/10/23 10:38:12;;;;;;;6.68;4.82;;;;;16.90;102598.00;;;;5028197;28;20366;-80
2021/10/23 10:43:32;;;;;;;6.95;5.45;;;;;17.10;102610.00;;;;5029487;28;20315;-80
2021/10/23 10:46:02;;;;;;;7.65;5.47;;;;;17.10;102607.00;;;;5029422;28;20208;-80
2021/10/23 10:48:44;;;;;;;8.25;5.93;;;;;17.10;102608.00;;;;5028992;28;20722;-79
2021/10/23 10:51:24;;;;;;;8.25;6.05;;;;;17.20;102606.00;;;;5028510;28;20318;-80
2021/10/23 10:54:09;;;;;;;7.75;5.80;;;;;17.20;102609.00;;;;5029349;28;20204;-79
2021/10/23 10:56:47;;;;;;;7.75;5.03;;;;;17.30;102616.00;;;;5029355;28;20661;-80
2021/10/23 10:59:52;;;;;;;6.32;5.07;;;;;17.30;102618.00;;;;5045010;28;20199;-80
2021/10/23 11:02:35;;;;;;;7.68;4.72;;;;;17.40;102607.00;;;;5037553;28;20247;-80
2021/10/23 11:05:16;;;;;;;9.43;5.57;;;;;17.40;102613.00;;;;5028758;28;20680;-79
2021/10/23 11:08:10;;;;;;;5.25;4.53;;;;;17.40;102610.00;;;;5029586;28;20227;-79
2021/10/23 11:10:56;;;;;;;5.40;4.38;;;;;17.50;102614.00;;;;5029379;28;20230;-80
2021/10/23 11:13:24;;;;;;;5.55;4.60;;;;;17.60;102605.00;;;;5028571;28;20645;-80
2021/10/23 11:15:53;;;;;;;5.53;4.55;;;;;17.60;102605.00;;;;5056763;28;20341;-80
2021/10/23 11:18:21;;;;;;;6.70;5.03;;;;;17.70;102596.00;;;;5062593;28;20223;-80
2021/10/23 11:20:50;;;;;;;8.10;5.53;;;;;17.70;102596.00;;;;5028893;28;20215;-79
2021/10/23 11:23:22;;;;;;;5.85;4.97;;;;;17.70;102600.00;;;;5029035;28;20207;-80
2021/10/23 11:25:51;;;;;;;7.72;5.78;;;;;17.80;102593.00;;;;5028475;28;20685;-80
2021/10/23 11:28:18;;;;;;;9.13;5.93;;;;;17.80;102599.00;;;;5036311;28;20314;-79
2021/10/23 11:30:46;;;;;;;7.22;5.53;;;;;17.80;102591.00;;;;5048456;28;20204;-79
2021/10/23 11:33:20;;;;;;;7.97;5.30;;;;;17.80;102590.00;;;;5047998;28;20203;-79
2021/10/23 11:35:49;;;;;;;7.57;5.93;;;;;17.90;102593.00;;;;5047111;28;20199;-78
2021/10/23 11:38:21;;;;;;;9.95;5.72;;;;;17.90;102600.00;;;;5048027;28;20253;-79
2021/10/23 11:40:54;;;;;;;9.63;5.93;;;;;17.90;102598.00;;;;5048434;28;20232;-79
2021/10/23 11:43:22;;;;;;;5.97;5.38;;;;;18.00;102596.00;;;;5048026;28;20670;-79
2021/10/23 11:45:49;;;;;;;8.60;5.63;;;;;18.00;102602.00;;;;5048614;28;20206;-79
2021/10/23 11:48:18;;;;;;;7.30;5.57;;;;;18.00;102597.00;;;;5047457;28;20322;-78
2021/10/23 11:50:47;;;;;;;7.30;5.22;;;;;18.00;102603.00;;;;5047811;28;20678;-79
2021/10/23 11:53:18;;;;;;;6.82;5.18;;;;;18.00;102600.00;;;;5037706;28;20223;-79
2021/10/23 11:55:47;;;;;;;7.75;4.93;;;;;18.00;102599.00;;;;5028380;28;20208;-79
2021/10/23 11:58:15;;;;;;;6.82;4.65;;;;;18.10;102595.00;;;;5037272;28;20204;-79
2021/10/23 12:00:44;;;;;;;5.55;4.80;;;;;18.10;102588.00;;;;5048349;28;20218;-79
2021/10/23 12:03:14;;;;;;;7.13;5.30;;;;;18.10;102594.00;;;;5047372;28;20227;-79
2021/10/23 12:05:45;;;;;;;6.28;4.72;;;;;18.20;102595.00;;;;5047869;28;20641;-79
2021/10/23 12:08:28;;;;;;;7.53;4.65;;;;;18.10;102595.00;;;;5047657;28;20234;-79
2021/10/23 12:11:11;;;;;;;5.57;4.25;;;;;18.20;102601.00;;;;5032241;28;20289;-79
2021/10/23 12:13:50;;;;;;;7.80;4.55;;;;;18.20;102598.00;;;;5029034;28;20212;-79
2021/10/23 12:16:20;;;;;;;6.15;4.35;;;;;18.30;102599.00;;;;5047533;28;20202;-79
2021/10/23 12:18:58;;;;;;;7.47;4.28;;;;;18.30;102599.00;;;;5048047;28;20206;-79
2021/10/23 12:21:34;;;;;;;6.25;4.50;;;;;18.40;102595.00;;;;5059918;28;20198;-79
2021/10/23 12:24:11;;;;;;;5.82;4.10;;;;;18.40;102599.00;;;;5048637;28;20652;-79